sensor_id;sensor_type;location;lat;lon;timestamp;temperature;humidity
2327;DHT22;1174;51.588;7.328;2023-02-10T00:00:28;6.50;99.90
2327;DHT22;1174;51.588;7.328;2023-02-10T00:02:55;6.60;99.90
2327;DHT22;1174;51.588;7.328;2023-02-10T00:05:22;6.60;99.90
2327;DHT22;1174;51.588;7.328;2023-02-10T00:07:49;6.60;99.90
2327;DHT22;1174;51.588;7.328;2023-02-10T00:10:17;6.60;99.90
2327;DHT22;1174;51.588;7.328;2023-02-10T00:12:44;6.50;99.90
2327;DHT22;1174;51.588;7.328;2023-02-10T00:15:12;6.50;99.90
2327;DHT22;1174;51.588;7.328;2023-02-10T00:17:39;6.50;99.90
2327;DHT22;1174;51.588;7.328;2023-02-10T00:20:08;6.50;99.90
2327;DHT22;1174;51.588;7.328;2023-02-10T00:22:35;6.40;99.90
2327;DHT22;1174;51.588;7.328;2023-02-10T00:25:03;6.50;99.90
2327;DHT22;1174;51.588;7.328;2023-02-10T00:27:30;6.50;99.90
2327;DHT22;1174;51.588;7.328;2023-02-10T00:29:57;6.50;99.90
2327;DHT22;1174;51.588;7.328;2023-02-10T00:32:25;6.40;99.90
2327;DHT22;1174;51.588;7.328;2023-02-10T00:34:52;6.40;99.90
2327;DHT22;1174;51.588;7.328;2023-02-10T00:37:19;6.50;99.90
2327;DHT22;1174;51.588;7.328;2023-02-10T00:39:46;6.30;99.90
2327;DHT22;1174;51.588;7.328;2023-02-10T00:42:14;6.30;99.90
2327;DHT22;1174;51.588;7.328;2023-02-10T00:44:40;6.20;99.90
2327;DHT22;1174;51.588;7.328;2023-02-10T00:47:08;6.10;99.90
2327;DHT22;1174;51.588;7.328;2023-02-10T00:49:37;6.20;99.90
2327;DHT22;1174;51.588;7.328;2023-02-10T00:52:04;6.30;99.90
2327;DHT22;1174;51.588;7.328;2023-02-10T00:54:31;6.30;99.90
2327;DHT22;1174;51.588;7.328;2023-02-10T00:56:58;6.20;99.90
2327;DHT22;1174;51.588;7.328;2023-02-10T00:59:25;6.40;99.90
2327;DHT22;1174;51.588;7.328;2023-02-10T01:01:52;6.50;99.90
2327;DHT22;1174;51.588;7.328;2023-02-10T01:04:19;6.50;99.90
2327;DHT22;1174;51.588;7.328;2023-02-10T01:06:47;6.50;99.90
2327;DHT22;1174;51.588;7.328;2023-02-10T01:09:14;6.50;99.90
2327;DHT22;1174;51.588;7.328;2023-02-10T01:11:41;6.40;99.90
2327;DHT22;1174;51.588;7.328;2023-02-10T01:14:08;6.40;99.90
2327;DHT22;1174;51.588;7.328;2023-02-10T01:16:35;6.40;99.90
2327;DHT22;1174;51.588;7.328;2023-02-10T01:19:03;6.30;99.90
2327;DHT22;1174;51.588;7.328;2023-02-10T01:21:32;6.20;99.90
2327;DHT22;1174;51.588;7.328;2023-02-10T01:24:04;6.20;99.90
2327;DHT22;1174;51.588;7.328;2023-02-10T01:26:31;6.20;99.90
2327;DHT22;1174;51.588;7.328;2023-02-10T01:28:58;6.30;99.90
2327;DHT22;1174;51.588;7.328;2023-02-10T01:31:26;6.20;99.90
2327;DHT22;1174;51.588;7.328;2023-02-10T01:33:54;6.20;99.90
2327;DHT22;1174;51.588;7.328;2023-02-10T01:36:22;6.20;99.90
2327;DHT22;1174;51.588;7.328;2023-02-10T01:38:50;6.30;99.90
2327;DHT22;1174;51.588;7.328;2023-02-10T01:41:21;6.20;99.90
2327;DHT22;1174;51.588;7.328;2023-02-10T01:43:55;6.20;99.90
2327;DHT22;1174;51.588;7.328;2023-02-10T01:46:22;6.20;99.90
2327;DHT22;1174;51.588;7.328;2023-02-10T01:48:49;6.10;99.90
2327;DHT22;1174;51.588;7.328;2023-02-10T01:51:18;6.10;99.90
2327;DHT22;1174;51.588;7.328;2023-02-10T01:53:47;6.10;99.90
2327;DHT22;1174;51.588;7.328;2023-02-10T01:56:15;6.10;99.90
2327;DHT22;1174;51.588;7.328;2023-02-10T01:58:44;6.10;99.90
2327;DHT22;1174;51.588;7.328;2023-02-10T02:01:13;6.10;99.90
2327;DHT22;1174;51.588;7.328;2023-02-10T02:03:41;6.20;99.90
2327;DHT22;1174;51.588;7.328;2023-02-10T02:06:08;6.20;99.90
2327;DHT22;1174;51.588;7.328;2023-02-10T02:08:36;6.20;99.90
2327;DHT22;1174;51.588;7.328;2023-02-10T02:11:21;6.10;99.90
2327;DHT22;1174;51.588;7.328;2023-02-10T02:16:58;6.00;99.90
2327;DHT22;1174;51.588;7.328;2023-02-10T02:26:15;6.10;99.90
2327;DHT22;1174;51.588;7.328;2023-02-10T02:32:31;5.80;99.90
2327;DHT22;1174;51.588;7.328;2023-02-10T02:35:02;5.70;99.90
2327;DHT22;1174;51.588;7.328;2023-02-10T02:37:32;5.50;99.90
2327;DHT22;1174;51.588;7.328;2023-02-10T02:40:00;5.40;99.90
2327;DHT22;1174;51.588;7.328;2023-02-10T02:42:29;5.30;99.90
2327;DHT22;1174;51.588;7.328;2023-02-10T02:44:59;5.30;99.90
2327;DHT22;1174;51.588;7.328;2023-02-10T02:47:43;5.20;99.90
2327;DHT22;1174;51.588;7.328;2023-02-10T02:50:22;5.20;99.90
2327;DHT22;1174;51.588;7.328;2023-02-10T02:53:06;5.10;99.90
2327;DHT22;1174;51.588;7.328;2023-02-10T02:55:42;5.10;99.90
2327;DHT22;1174;51.588;7.328;2023-02-10T02:58:16;5.20;99.90
2327;DHT22;1174;51.588;7.328;2023-02-10T03:00:46;5.40;99.90
2327;DHT22;1174;51.588;7.328;2023-02-10T03:03:15;5.40;99.90
2327;DHT22;1174;51.588;7.328;2023-02-10T03:05:43;5.40;99.90
2327;DHT22;1174;51.588;7.328;2023-02-10T03:08:10;5.40;99.90
2327;DHT22;1174;51.588;7.328;2023-02-10T03:10:36;5.30;99.90
2327;DHT22;1174;51.588;7.328;2023-02-10T03:13:03;5.30;99.90
2327;DHT22;1174;51.588;7.328;2023-02-10T03:15:30;5.30;99.90
2327;DHT22;1174;51.588;7.328;2023-02-10T03:17:58;5.20;99.90
2327;DHT22;1174;51.588;7.328;2023-02-10T03:20:26;5.20;99.90
2327;DHT22;1174;51.588;7.328;2023-02-10T03:22:53;4.90;99.90
2327;DHT22;1174;51.588;7.328;2023-02-10T03:25:20;4.90;99.90
2327;DHT22;1174;51.588;7.328;2023-02-10T03:27:47;5.00;99.90
2327;DHT22;1174;51.588;7.328;2023-02-10T03:30:14;4.90;99.90
2327;DHT22;1174;51.588;7.328;2023-02-10T03:32:41;4.90;99.90
2327;DHT22;1174;51.588;7.328;2023-02-10T03:35:08;4.90;99.90
2327;DHT22;1174;51.588;7.328;2023-02-10T03:37:36;5.00;99.90
2327;DHT22;1174;51.588;7.328;2023-02-10T03:40:03;5.00;99.90
2327;DHT22;1174;51.588;7.328;2023-02-10T03:42:30;4.90;99.90
2327;DHT22;1174;51.588;7.328;2023-02-10T03:44:57;4.80;99.90
2327;DHT22;1174;51.588;7.328;2023-02-10T03:47:24;4.80;99.90
2327;DHT22;1174;51.588;7.328;2023-02-10T03:49:51;4.90;99.90
2327;DHT22;1174;51.588;7.328;2023-02-10T03:52:18;4.80;99.90
2327;DHT22;1174;51.588;7.328;2023-02-10T03:54:46;4.70;99.90
2327;DHT22;1174;51.588;7.328;2023-02-10T03:57:13;4.60;99.90
2327;DHT22;1174;51.588;7.328;2023-02-10T03:59:40;4.60;99.90
2327;DHT22;1174;51.588;7.328;2023-02-10T04:02:07;4.70;99.90
2327;DHT22;1174;51.588;7.328;2023-02-10T04:04:34;4.70;99.90
2327;DHT22;1174;51.588;7.328;2023-02-10T04:07:01;4.60;99.90
2327;DHT22;1174;51.588;7.328;2023-02-10T04:09:29;4.60;99.90
2327;DHT22;1174;51.588;7.328;2023-02-10T04:11:57;4.50;99.90
2327;DHT22;1174;51.588;7.328;2023-02-10T04:14:24;4.50;99.90
2327;DHT22;1174;51.588;7.328;2023-02-10T04:16:51;4.50;99.90
2327;DHT22;1174;51.588;7.328;2023-02-10T04:19:18;4.50;99.90
2327;DHT22;1174;51.588;7.328;2023-02-10T04:21:45;4.50;99.90
2327;DHT22;1174;51.588;7.328;2023-02-10T04:24:12;4.50;99.90
2327;DHT22;1174;51.588;7.328;2023-02-10T04:26:39;4.40;99.90
2327;DHT22;1174;51.588;7.328;2023-02-10T04:29:07;4.20;99.90
2327;DHT22;1174;51.588;7.328;2023-02-10T04:31:34;4.20;99.90
2327;DHT22;1174;51.588;7.328;2023-02-10T04:34:02;4.20;99.90
2327;DHT22;1174;51.588;7.328;2023-02-10T04:36:29;4.00;99.90
2327;DHT22;1174;51.588;7.328;2023-02-10T04:38:56;4.00;99.90
2327;DHT22;1174;51.588;7.328;2023-02-10T04:41:23;4.00;99.90
2327;DHT22;1174;51.588;7.328;2023-02-10T04:43:51;4.00;99.90
2327;DHT22;1174;51.588;7.328;2023-02-10T04:46:20;4.00;99.90
2327;DHT22;1174;51.588;7.328;2023-02-10T04:48:47;4.00;99.90
2327;DHT22;1174;51.588;7.328;2023-02-10T04:51:14;4.00;99.90
2327;DHT22;1174;51.588;7.328;2023-02-10T04:53:41;3.90;99.90
2327;DHT22;1174;51.588;7.328;2023-02-10T04:56:10;3.80;99.90
2327;DHT22;1174;51.588;7.328;2023-02-10T04:58:37;4.00;99.90
2327;DHT22;1174;51.588;7.328;2023-02-10T05:01:04;4.00;99.90
2327;DHT22;1174;51.588;7.328;2023-02-10T05:03:32;4.10;99.90
2327;DHT22;1174;51.588;7.328;2023-02-10T05:06:04;4.00;99.90
2327;DHT22;1174;51.588;7.328;2023-02-10T05:08:32;4.00;99.90
2327;DHT22;1174;51.588;7.328;2023-02-10T05:10:59;4.00;99.90
2327;DHT22;1174;51.588;7.328;2023-02-10T05:13:26;4.10;99.90
2327;DHT22;1174;51.588;7.328;2023-02-10T05:15:53;4.10;99.90
2327;DHT22;1174;51.588;7.328;2023-02-10T05:18:20;4.20;99.90
2327;DHT22;1174;51.588;7.328;2023-02-10T05:20:48;4.00;99.90
2327;DHT22;1174;51.588;7.328;2023-02-10T05:23:15;4.00;99.90
2327;DHT22;1174;51.588;7.328;2023-02-10T05:25:42;4.00;99.90
2327;DHT22;1174;51.588;7.328;2023-02-10T05:28:09;4.00;99.90
2327;DHT22;1174;51.588;7.328;2023-02-10T05:30:36;4.00;99.90
2327;DHT22;1174;51.588;7.328;2023-02-10T05:33:03;4.00;99.90
2327;DHT22;1174;51.588;7.328;2023-02-10T05:35:30;4.10;99.90
2327;DHT22;1174;51.588;7.328;2023-02-10T05:37:58;4.10;99.90
2327;DHT22;1174;51.588;7.328;2023-02-10T05:40:27;4.10;99.90
2327;DHT22;1174;51.588;7.328;2023-02-10T05:42:54;4.00;99.90
2327;DHT22;1174;51.588;7.328;2023-02-10T05:45:21;4.00;99.90
2327;DHT22;1174;51.588;7.328;2023-02-10T05:47:49;4.00;99.90
2327;DHT22;1174;51.588;7.328;2023-02-10T05:50:16;4.00;99.90
2327;DHT22;1174;51.588;7.328;2023-02-10T05:52:43;4.00;99.90
2327;DHT22;1174;51.588;7.328;2023-02-10T05:55:12;4.10;99.90
2327;DHT22;1174;51.588;7.328;2023-02-10T05:57:39;4.00;99.90
2327;DHT22;1174;51.588;7.328;2023-02-10T06:00:07;4.10;99.90
2327;DHT22;1174;51.588;7.328;2023-02-10T06:02:35;4.20;99.90
2327;DHT22;1174;51.588;7.328;2023-02-10T06:05:05;4.20;99.90
2327;DHT22;1174;51.588;7.328;2023-02-10T06:07:32;4.20;99.90
2327;DHT22;1174;51.588;7.328;2023-02-10T06:09:59;4.30;99.90
2327;DHT22;1174;51.588;7.328;2023-02-10T06:12:28;4.40;99.90
2327;DHT22;1174;51.588;7.328;2023-02-10T06:14:55;4.40;99.90
2327;DHT22;1174;51.588;7.328;2023-02-10T06:17:24;4.40;99.90
2327;DHT22;1174;51.588;7.328;2023-02-10T06:19:51;4.50;99.90
2327;DHT22;1174;51.588;7.328;2023-02-10T06:22:18;4.50;99.90
2327;DHT22;1174;51.588;7.328;2023-02-10T06:24:45;4.50;99.90
2327;DHT22;1174;51.588;7.328;2023-02-10T06:27:14;4.50;99.90
2327;DHT22;1174;51.588;7.328;2023-02-10T06:29:43;4.50;99.90
2327;DHT22;1174;51.588;7.328;2023-02-10T06:32:10;4.50;99.90
2327;DHT22;1174;51.588;7.328;2023-02-10T06:34:37;4.40;99.90
2327;DHT22;1174;51.588;7.328;2023-02-10T06:37:05;4.40;99.90
2327;DHT22;1174;51.588;7.328;2023-02-10T06:39:32;4.30;99.90
2327;DHT22;1174;51.588;7.328;2023-02-10T06:42:00;4.30;99.90
2327;DHT22;1174;51.588;7.328;2023-02-10T06:44:26;4.30;99.90
2327;DHT22;1174;51.588;7.328;2023-02-10T06:46:55;4.30;99.90
2327;DHT22;1174;51.588;7.328;2023-02-10T06:49:22;4.40;99.90
2327;DHT22;1174;51.588;7.328;2023-02-10T06:51:49;4.50;99.90
2327;DHT22;1174;51.588;7.328;2023-02-10T06:54:16;4.60;99.90
2327;DHT22;1174;51.588;7.328;2023-02-10T06:56:43;4.60;99.90
2327;DHT22;1174;51.588;7.328;2023-02-10T06:59:11;4.70;99.90
2327;DHT22;1174;51.588;7.328;2023-02-10T07:01:40;4.60;99.90
2327;DHT22;1174;51.588;7.328;2023-02-10T07:04:09;4.50;99.90
2327;DHT22;1174;51.588;7.328;2023-02-10T07:06:36;4.50;99.90
2327;DHT22;1174;51.588;7.328;2023-02-10T07:09:03;4.60;99.90
2327;DHT22;1174;51.588;7.328;2023-02-10T07:11:30;4.60;99.90
2327;DHT22;1174;51.588;7.328;2023-02-10T07:13:57;4.60;99.90
2327;DHT22;1174;51.588;7.328;2023-02-10T07:16:24;4.60;99.90
2327;DHT22;1174;51.588;7.328;2023-02-10T07:18:53;4.60;99.90
2327;DHT22;1174;51.588;7.328;2023-02-10T07:21:21;4.70;99.90
2327;DHT22;1174;51.588;7.328;2023-02-10T07:23:48;4.80;99.90
2327;DHT22;1174;51.588;7.328;2023-02-10T07:26:15;4.90;99.90
2327;DHT22;1174;51.588;7.328;2023-02-10T07:28:43;4.80;99.90
2327;DHT22;1174;51.588;7.328;2023-02-10T07:31:10;4.80;99.90
2327;DHT22;1174;51.588;7.328;2023-02-10T07:33:37;4.80;99.90
2327;DHT22;1174;51.588;7.328;2023-02-10T07:36:05;4.90;99.90
2327;DHT22;1174;51.588;7.328;2023-02-10T07:38:34;5.00;99.90
2327;DHT22;1174;51.588;7.328;2023-02-10T07:41:01;4.90;99.90
2327;DHT22;1174;51.588;7.328;2023-02-10T07:43:29;5.00;99.90
2327;DHT22;1174;51.588;7.328;2023-02-10T07:45:56;5.10;99.90
2327;DHT22;1174;51.588;7.328;2023-02-10T07:48:23;5.10;99.90
2327;DHT22;1174;51.588;7.328;2023-02-10T07:50:50;5.10;99.90
2327;DHT22;1174;51.588;7.328;2023-02-10T07:53:18;5.20;99.90
2327;DHT22;1174;51.588;7.328;2023-02-10T07:55:47;5.30;99.90
2327;DHT22;1174;51.588;7.328;2023-02-10T07:58:17;5.50;99.90
2327;DHT22;1174;51.588;7.328;2023-02-10T08:00:44;5.50;99.90
2327;DHT22;1174;51.588;7.328;2023-02-10T08:03:12;5.70;99.90
2327;DHT22;1174;51.588;7.328;2023-02-10T08:05:39;5.70;99.90
2327;DHT22;1174;51.588;7.328;2023-02-10T08:08:08;5.70;99.90
2327;DHT22;1174;51.588;7.328;2023-02-10T08:10:36;5.60;99.90
2327;DHT22;1174;51.588;7.328;2023-02-10T08:13:05;5.60;99.90
2327;DHT22;1174;51.588;7.328;2023-02-10T08:15:33;5.60;99.90
2327;DHT22;1174;51.588;7.328;2023-02-10T08:18:00;5.50;99.90
2327;DHT22;1174;51.588;7.328;2023-02-10T08:20:28;5.30;99.90
2327;DHT22;1174;51.588;7.328;2023-02-10T08:22:55;5.30;99.90
2327;DHT22;1174;51.588;7.328;2023-02-10T08:25:23;5.50;99.90
2327;DHT22;1174;51.588;7.328;2023-02-10T08:27:51;5.70;99.90
2327;DHT22;1174;51.588;7.328;2023-02-10T08:30:19;5.80;99.90
2327;DHT22;1174;51.588;7.328;2023-02-10T08:32:48;5.90;99.90
2327;DHT22;1174;51.588;7.328;2023-02-10T08:35:15;6.20;99.90
2327;DHT22;1174;51.588;7.328;2023-02-10T08:37:42;6.30;99.90
2327;DHT22;1174;51.588;7.328;2023-02-10T08:40:10;6.70;99.90
2327;DHT22;1174;51.588;7.328;2023-02-10T08:42:37;6.90;99.90
2327;DHT22;1174;51.588;7.328;2023-02-10T08:45:04;7.00;99.90
2327;DHT22;1174;51.588;7.328;2023-02-10T08:47:33;7.20;99.90
2327;DHT22;1174;51.588;7.328;2023-02-10T08:50:00;7.20;99.90
2327;DHT22;1174;51.588;7.328;2023-02-10T08:52:27;7.10;99.90
2327;DHT22;1174;51.588;7.328;2023-02-10T08:54:55;7.10;99.90
2327;DHT22;1174;51.588;7.328;2023-02-10T08:57:22;7.40;99.90
2327;DHT22;1174;51.588;7.328;2023-02-10T08:59:49;7.50;99.90
2327;DHT22;1174;51.588;7.328;2023-02-10T09:02:16;7.70;99.90
2327;DHT22;1174;51.588;7.328;2023-02-10T09:04:44;7.70;99.90
2327;DHT22;1174;51.588;7.328;2023-02-10T09:07:11;7.60;99.90
2327;DHT22;1174;51.588;7.328;2023-02-10T09:09:40;7.60;99.90
2327;DHT22;1174;51.588;7.328;2023-02-10T09:12:08;7.60;99.90
2327;DHT22;1174;51.588;7.328;2023-02-10T09:14:37;7.50;99.90
2327;DHT22;1174;51.588;7.328;2023-02-10T09:17:04;7.60;99.90
2327;DHT22;1174;51.588;7.328;2023-02-10T09:19:33;7.50;99.90
2327;DHT22;1174;51.588;7.328;2023-02-10T09:22:02;7.20;99.90
2327;DHT22;1174;51.588;7.328;2023-02-10T09:24:29;7.00;99.90
2327;DHT22;1174;51.588;7.328;2023-02-10T09:26:56;6.90;99.90
2327;DHT22;1174;51.588;7.328;2023-02-10T09:29:23;6.90;99.90
2327;DHT22;1174;51.588;7.328;2023-02-10T09:31:51;6.80;99.90
2327;DHT22;1174;51.588;7.328;2023-02-10T09:34:18;6.80;99.90
2327;DHT22;1174;51.588;7.328;2023-02-10T09:36:45;6.80;99.90
2327;DHT22;1174;51.588;7.328;2023-02-10T09:39:13;6.80;99.90
2327;DHT22;1174;51.588;7.328;2023-02-10T09:41:55;6.70;99.90
2327;DHT22;1174;51.588;7.328;2023-02-10T09:44:26;6.80;99.90
2327;DHT22;1174;51.588;7.328;2023-02-10T09:47:18;6.80;99.90
2327;DHT22;1174;51.588;7.328;2023-02-10T09:50:03;7.00;99.90
2327;DHT22;1174;51.588;7.328;2023-02-10T09:52:42;7.70;99.90
2327;DHT22;1174;51.588;7.328;2023-02-10T09:55:16;8.70;99.90
2327;DHT22;1174;51.588;7.328;2023-02-10T09:57:47;8.50;99.90
2327;DHT22;1174;51.588;7.328;2023-02-10T10:00:23;8.30;99.90
2327;DHT22;1174;51.588;7.328;2023-02-10T10:02:53;9.00;99.90
2327;DHT22;1174;51.588;7.328;2023-02-10T10:05:28;9.80;99.90
2327;DHT22;1174;51.588;7.328;2023-02-10T10:07:58;10.50;99.90
2327;DHT22;1174;51.588;7.328;2023-02-10T10:10:30;10.20;99.90
2327;DHT22;1174;51.588;7.328;2023-02-10T10:12:58;9.90;99.90
2327;DHT22;1174;51.588;7.328;2023-02-10T10:15:31;9.60;99.90
2327;DHT22;1174;51.588;7.328;2023-02-10T10:18:04;10.40;99.90
2327;DHT22;1174;51.588;7.328;2023-02-10T10:20:47;11.20;99.90
2327;DHT22;1174;51.588;7.328;2023-02-10T10:23:31;11.40;99.90
2327;DHT22;1174;51.588;7.328;2023-02-10T10:26:31;10.90;99.90
2327;DHT22;1174;51.588;7.328;2023-02-10T10:29:10;10.50;99.90
2327;DHT22;1174;51.588;7.328;2023-02-10T10:31:42;10.80;99.90
2327;DHT22;1174;51.588;7.328;2023-02-10T10:34:15;11.30;99.90
2327;DHT22;1174;51.588;7.328;2023-02-10T10:36:45;12.10;99.90
2327;DHT22;1174;51.588;7.328;2023-02-10T10:39:18;12.30;99.90
2327;DHT22;1174;51.588;7.328;2023-02-10T10:41:52;12.50;99.90
2327;DHT22;1174;51.588;7.328;2023-02-10T10:44:20;12.60;99.90
2327;DHT22;1174;51.588;7.328;2023-02-10T10:46:52;12.70;99.90
2327;DHT22;1174;51.588;7.328;2023-02-10T10:49:22;13.00;99.90
2327;DHT22;1174;51.588;7.328;2023-02-10T10:51:49;13.20;99.90
2327;DHT22;1174;51.588;7.328;2023-02-10T10:54:19;13.60;99.90
2327;DHT22;1174;51.588;7.328;2023-02-10T10:56:51;13.70;99.90
2327;DHT22;1174;51.588;7.328;2023-02-10T10:59:21;13.50;99.90
2327;DHT22;1174;51.588;7.328;2023-02-10T11:01:52;12.90;99.90
2327;DHT22;1174;51.588;7.328;2023-02-10T11:04:22;12.50;99.90
2327;DHT22;1174;51.588;7.328;2023-02-10T11:06:52;12.40;99.90
2327;DHT22;1174;51.588;7.328;2023-02-10T11:09:22;12.20;99.90
2327;DHT22;1174;51.588;7.328;2023-02-10T11:11:54;11.80;99.90
2327;DHT22;1174;51.588;7.328;2023-02-10T11:14:29;11.90;99.90
2327;DHT22;1174;51.588;7.328;2023-02-10T11:17:02;12.00;99.90
2327;DHT22;1174;51.588;7.328;2023-02-10T11:19:32;12.20;99.90
2327;DHT22;1174;51.588;7.328;2023-02-10T11:22:00;12.10;99.90
2327;DHT22;1174;51.588;7.328;2023-02-10T11:24:30;11.40;99.90
2327;DHT22;1174;51.588;7.328;2023-02-10T11:27:01;10.90;99.90
2327;DHT22;1174;51.588;7.328;2023-02-10T11:29:33;10.70;99.90
2327;DHT22;1174;51.588;7.328;2023-02-10T11:32:00;11.00;99.90
2327;DHT22;1174;51.588;7.328;2023-02-10T11:34:32;11.70;99.90
2327;DHT22;1174;51.588;7.328;2023-02-10T11:37:10;12.20;99.90
2327;DHT22;1174;51.588;7.328;2023-02-10T11:39:39;12.60;99.90
2327;DHT22;1174;51.588;7.328;2023-02-10T11:42:10;12.80;99.90
2327;DHT22;1174;51.588;7.328;2023-02-10T11:44:38;12.80;99.90
2327;DHT22;1174;51.588;7.328;2023-02-10T11:47:13;12.90;99.90
2327;DHT22;1174;51.588;7.328;2023-02-10T11:49:43;13.10;99.90
2327;DHT22;1174;51.588;7.328;2023-02-10T11:52:11;13.20;99.90
2327;DHT22;1174;51.588;7.328;2023-02-10T11:54:38;12.40;99.90
2327;DHT22;1174;51.588;7.328;2023-02-10T12:00:23;11.40;99.90
2327;DHT22;1174;51.588;7.328;2023-02-10T12:03:13;10.90;99.90
2327;DHT22;1174;51.588;7.328;2023-02-10T12:05:49;10.90;99.90
2327;DHT22;1174;51.588;7.328;2023-02-10T12:08:24;11.10;99.90
2327;DHT22;1174;51.588;7.328;2023-02-10T12:10:56;11.60;99.90
2327;DHT22;1174;51.588;7.328;2023-02-10T12:13:32;12.20;99.90
2327;DHT22;1174;51.588;7.328;2023-02-10T12:16:09;13.00;99.90
2327;DHT22;1174;51.588;7.328;2023-02-10T12:18:55;13.60;99.90
2327;DHT22;1174;51.588;7.328;2023-02-10T12:21:39;13.80;99.90
2327;DHT22;1174;51.588;7.328;2023-02-10T12:24:17;13.90;99.90
2327;DHT22;1174;51.588;7.328;2023-02-10T12:26:50;14.30;99.90
2327;DHT22;1174;51.588;7.328;2023-02-10T12:29:34;15.00;99.90
2327;DHT22;1174;51.588;7.328;2023-02-10T12:32:12;15.20;99.90
2327;DHT22;1174;51.588;7.328;2023-02-10T12:35:03;15.00;99.90
2327;DHT22;1174;51.588;7.328;2023-02-10T12:37:39;15.00;99.90
2327;DHT22;1174;51.588;7.328;2023-02-10T12:40:28;14.20;99.90
2327;DHT22;1174;51.588;7.328;2023-02-10T12:43:04;13.30;99.90
2327;DHT22;1174;51.588;7.328;2023-02-10T12:45:43;12.60;99.90
2327;DHT22;1174;51.588;7.328;2023-02-10T12:48:24;12.50;99.90
2327;DHT22;1174;51.588;7.328;2023-02-10T12:51:13;13.10;99.90
2327;DHT22;1174;51.588;7.328;2023-02-10T12:53:45;13.80;99.90
2327;DHT22;1174;51.588;7.328;2023-02-10T12:56:19;14.10;99.90
2327;DHT22;1174;51.588;7.328;2023-02-10T12:58:51;13.80;99.90
2327;DHT22;1174;51.588;7.328;2023-02-10T13:01:25;13.80;99.90
2327;DHT22;1174;51.588;7.328;2023-02-10T13:03:57;13.50;99.90
2327;DHT22;1174;51.588;7.328;2023-02-10T13:06:35;12.60;99.90
2327;DHT22;1174;51.588;7.328;2023-02-10T13:09:11;12.20;99.90
2327;DHT22;1174;51.588;7.328;2023-02-10T13:11:42;11.90;99.90
2327;DHT22;1174;51.588;7.328;2023-02-10T13:14:16;11.40;99.90
2327;DHT22;1174;51.588;7.328;2023-02-10T13:16:52;11.20;99.90
2327;DHT22;1174;51.588;7.328;2023-02-10T13:19:27;11.80;99.90
2327;DHT22;1174;51.588;7.328;2023-02-10T13:22:00;12.40;99.90
2327;DHT22;1174;51.588;7.328;2023-02-10T13:24:34;12.90;99.90
2327;DHT22;1174;51.588;7.328;2023-02-10T13:27:25;13.00;99.90
2327;DHT22;1174;51.588;7.328;2023-02-10T13:30:11;13.20;99.90
2327;DHT22;1174;51.588;7.328;2023-02-10T13:32:48;13.60;99.90
2327;DHT22;1174;51.588;7.328;2023-02-10T13:35:21;13.40;99.90
2327;DHT22;1174;51.588;7.328;2023-02-10T13:37:50;13.20;99.90
2327;DHT22;1174;51.588;7.328;2023-02-10T13:40:21;13.60;99.90
2327;DHT22;1174;51.588;7.328;2023-02-10T13:42:51;13.80;99.90
2327;DHT22;1174;51.588;7.328;2023-02-10T13:45:20;14.60;99.60
2327;DHT22;1174;51.588;7.328;2023-02-10T13:47:51;15.00;98.80
2327;DHT22;1174;51.588;7.328;2023-02-10T13:50:27;15.60;97.40
2327;DHT22;1174;51.588;7.328;2023-02-10T13:52:57;15.40;97.50
2327;DHT22;1174;51.588;7.328;2023-02-10T13:55:29;14.90;97.00
2327;DHT22;1174;51.588;7.328;2023-02-10T14:01:32;14.20;97.40
2327;DHT22;1174;51.588;7.328;2023-02-10T14:04:02;13.50;97.20
2327;DHT22;1174;51.588;7.328;2023-02-10T14:06:37;13.60;98.20
2327;DHT22;1174;51.588;7.328;2023-02-10T14:09:06;14.40;97.50
2327;DHT22;1174;51.588;7.328;2023-02-10T14:11:40;14.50;96.10
2327;DHT22;1174;51.588;7.328;2023-02-10T14:14:24;14.00;95.50
2327;DHT22;1174;51.588;7.328;2023-02-10T14:17:00;14.10;97.10
2327;DHT22;1174;51.588;7.328;2023-02-10T14:19:31;14.70;95.30
2327;DHT22;1174;51.588;7.328;2023-02-10T14:22:00;14.30;94.60
2327;DHT22;1174;51.588;7.328;2023-02-10T14:24:28;13.80;94.10
2327;DHT22;1174;51.588;7.328;2023-02-10T14:26:58;13.60;95.40
2327;DHT22;1174;51.588;7.328;2023-02-10T14:29:29;13.60;95.60
2327;DHT22;1174;51.588;7.328;2023-02-10T14:31:58;13.80;95.20
2327;DHT22;1174;51.588;7.328;2023-02-10T14:34:31;14.00;95.60
2327;DHT22;1174;51.588;7.328;2023-02-10T14:37:00;13.40;94.70
2327;DHT22;1174;51.588;7.328;2023-02-10T14:39:29;12.70;95.50
2327;DHT22;1174;51.588;7.328;2023-02-10T14:41:59;12.50;95.90
2327;DHT22;1174;51.588;7.328;2023-02-10T14:44:30;12.80;95.60
2327;DHT22;1174;51.588;7.328;2023-02-10T14:46:59;13.30;95.60
2327;DHT22;1174;51.588;7.328;2023-02-10T14:49:26;13.50;94.40
2327;DHT22;1174;51.588;7.328;2023-02-10T14:51:56;13.40;95.00
2327;DHT22;1174;51.588;7.328;2023-02-10T14:54:25;13.10;95.30
2327;DHT22;1174;51.588;7.328;2023-02-10T14:56:53;12.40;96.40
2327;DHT22;1174;51.588;7.328;2023-02-10T14:59:23;12.70;97.20
2327;DHT22;1174;51.588;7.328;2023-02-10T15:01:53;13.00;97.10
2327;DHT22;1174;51.588;7.328;2023-02-10T15:04:21;12.80;97.40
2327;DHT22;1174;51.588;7.328;2023-02-10T15:06:52;12.60;98.00
2327;DHT22;1174;51.588;7.328;2023-02-10T15:09:23;12.30;98.10
2327;DHT22;1174;51.588;7.328;2023-02-10T15:11:53;12.10;98.90
2327;DHT22;1174;51.588;7.328;2023-02-10T15:14:43;11.70;99.70
2327;DHT22;1174;51.588;7.328;2023-02-10T15:17:14;11.00;99.90
2327;DHT22;1174;51.588;7.328;2023-02-10T15:19:56;10.80;99.90
2327;DHT22;1174;51.588;7.328;2023-02-10T15:22:38;10.70;99.90
2327;DHT22;1174;51.588;7.328;2023-02-10T15:25:41;10.70;99.90
2327;DHT22;1174;51.588;7.328;2023-02-10T15:28:20;10.70;99.90
2327;DHT22;1174;51.588;7.328;2023-02-10T15:30:54;10.50;99.90
2327;DHT22;1174;51.588;7.328;2023-02-10T15:33:24;10.10;99.90
2327;DHT22;1174;51.588;7.328;2023-02-10T15:35:53;9.80;99.90
2327;DHT22;1174;51.588;7.328;2023-02-10T15:38:21;9.90;99.90
2327;DHT22;1174;51.588;7.328;2023-02-10T15:40:55;10.00;99.90
2327;DHT22;1174;51.588;7.328;2023-02-10T15:43:25;10.00;99.90
2327;DHT22;1174;51.588;7.328;2023-02-10T15:46:03;9.90;99.90
2327;DHT22;1174;51.588;7.328;2023-02-10T15:48:30;9.90;99.90
2327;DHT22;1174;51.588;7.328;2023-02-10T15:50:57;9.70;99.90
2327;DHT22;1174;51.588;7.328;2023-02-10T15:53:24;9.60;99.90
2327;DHT22;1174;51.588;7.328;2023-02-10T15:55:53;9.60;99.90
2327;DHT22;1174;51.588;7.328;2023-02-10T15:58:20;9.70;99.90
2327;DHT22;1174;51.588;7.328;2023-02-10T16:00:47;10.00;99.90
2327;DHT22;1174;51.588;7.328;2023-02-10T16:03:14;10.10;99.90
2327;DHT22;1174;51.588;7.328;2023-02-10T16:05:44;10.10;99.90
2327;DHT22;1174;51.588;7.328;2023-02-10T16:08:18;10.00;99.90
2327;DHT22;1174;51.588;7.328;2023-02-10T16:10:46;9.70;99.90
2327;DHT22;1174;51.588;7.328;2023-02-10T16:13:15;9.70;99.90
2327;DHT22;1174;51.588;7.328;2023-02-10T16:15:44;9.70;99.90
2327;DHT22;1174;51.588;7.328;2023-02-10T16:18:15;9.60;99.90
2327;DHT22;1174;51.588;7.328;2023-02-10T16:20:45;9.30;99.90
2327;DHT22;1174;51.588;7.328;2023-02-10T16:23:16;9.20;99.90
2327;DHT22;1174;51.588;7.328;2023-02-10T16:25:43;9.10;99.90
2327;DHT22;1174;51.588;7.328;2023-02-10T16:28:12;9.00;99.90
2327;DHT22;1174;51.588;7.328;2023-02-10T16:30:42;9.00;99.90
2327;DHT22;1174;51.588;7.328;2023-02-10T16:33:09;9.00;99.90
2327;DHT22;1174;51.588;7.328;2023-02-10T16:35:36;9.10;99.90
2327;DHT22;1174;51.588;7.328;2023-02-10T16:38:03;9.20;99.90
2327;DHT22;1174;51.588;7.328;2023-02-10T16:40:33;9.20;99.90
2327;DHT22;1174;51.588;7.328;2023-02-10T16:43:00;9.00;99.90
2327;DHT22;1174;51.588;7.328;2023-02-10T16:45:29;9.10;99.90
2327;DHT22;1174;51.588;7.328;2023-02-10T16:47:58;9.10;99.90
2327;DHT22;1174;51.588;7.328;2023-02-10T16:50:32;9.10;99.90